Time;durP1;ratioP1;P1;durP2;ratioP2;P2;SDS_P1;SDS_P2;PMS_P1;PMS_P2;Temp;Humidity;BMP_temperature;BMP_pressure;BME280_temperature;BME280_humidity;BME280_pressure;Samples;Min_cycle;Max_cycle;Signal;HPM_P1;HPM_P2
2022/08/21 00:00:13;;;;;;;;;;;;;;;;;;6199453;23;20293;-88
2022/08/21 00:02:45;;;;;;;;;;;;;;;;;;6168858;23;20348;-88
2022/08/21 00:05:12;;;;;;;;;;;;;;;;;;6173184;23;19919;-88
2022/08/21 00:07:38;;;;;;;;;;;;;;;;;;6203233;22;19919;-88
2022/08/21 00:10:04;;;;;;;;;;;;;;;;;;6218996;22;19926;-88
2022/08/21 00:12:30;;;;;;;;;;;;;;;;;;6236182;22;19922;-88
2022/08/21 00:14:56;;;;;;;;;;;;;;;;;;6239442;22;19926;-89
2022/08/21 00:17:25;;;;;;;;;;;;;;;;;;6263222;22;19918;-89
2022/08/21 00:19:51;;;;;;;;;;;;;;;;;;6240272;22;19925;-88
2022/08/21 00:22:17;;;;;;;;;;;;;;;;;;6263853;22;20323;-88
2022/08/21 00:24:43;;;;;;;;;;;;;;;;;;6237066;22;20651;-89
2022/08/21 00:27:09;;;;;;;;;;;;;;;;;;6265918;22;20347;-88
2022/08/21 00:29:35;;;;;;;;;;;;;;;;;;6263975;22;19919;-88
2022/08/21 00:32:01;;;;;;;;;;;;;;;;;;6264831;22;19926;-88
2022/08/21 00:34:33;;;;;;;;;;;;;;;;;;6263521;22;20350;-88
2022/08/21 00:36:59;;;;;;;;;;;;;;;;;;6238784;22;19919;-88
2022/08/21 00:39:25;;;;;;;;;;;;;;;;;;6262349;22;19957;-88
2022/08/21 00:41:52;;;;;;;;;;;;;;;;;;6239451;22;19960;-88
2022/08/21 00:44:21;;;;;;;;;;;;;;;;;;6294028;22;20053;-89
2022/08/21 00:46:48;;;;;;;;;;;;;;;;;;6265524;22;19954;-88
2022/08/21 00:49:14;;;;;;;;;;;;;;;;;;6239360;22;19960;-88
2022/08/21 00:51:40;;;;;;;;;;;;;;;;;;6236612;22;19968;-88
2022/08/21 00:54:06;;;;;;;;;;;;;;;;;;6290601;22;19921;-88
2022/08/21 00:56:32;;;;;;;;;;;;;;;;;;6288397;22;20331;-88
2022/08/21 00:59:00;;;;;;;;;;;;;;;;;;6291681;22;19973;-88
2022/08/21 01:01:26;;;;;;;;;;;;;;;;;;6289067;22;19923;-88
2022/08/21 01:03:51;;;;;;;;;;;;;;;;;;6262138;22;19929;-88
2022/08/21 01:06:17;;;;;;;;;;;;;;;;;;6263981;22;19919;-88
2022/08/21 01:08:43;;;;;;;;;;;;;;;;;;6264206;22;19964;-88
2022/08/21 01:11:09;;;;;;;;;;;;;;;;;;6291454;22;19919;-88
2022/08/21 01:13:35;;;;;;;;;;;;;;;;;;6289270;22;19929;-88
2022/08/21 01:16:01;;;;;;;;;;;;;;;;;;6264246;22;20005;-88
2022/08/21 01:18:27;;;;;;;;;;;;;;;;;;6263155;22;19915;-88
2022/08/21 01:20:53;;;;;;;;;;;;;;;;;;6263638;22;19997;-88
2022/08/21 01:23:22;;;;;;;;;;;;;;;;;;6264313;22;19984;-88
2022/08/21 01:25:48;;;;;;;;;;;;;;;;;;6264189;22;19941;-88
2022/08/21 01:28:14;;;;;;;;;;;;;;;;;;6239976;22;19919;-88
2022/08/21 01:30:41;;;;;;;;;;;;;;;;;;6261440;22;19921;-88
2022/08/21 01:33:07;;;;;;;;;;;;;;;;;;6232844;22;19973;-89
2022/08/21 01:35:33;;;;;;;;;;;;;;;;;;6236194;22;20324;-88
2022/08/21 01:37:59;;;;;;;;;;;;;;;;;;6240469;22;19918;-88
2022/08/21 01:40:28;;;;;;;;;;;;;;;;;;6236728;22;19930;-88
2022/08/21 01:42:54;;;;;;;;;;;;;;;;;;6262359;22;19922;-88
2022/08/21 01:45:20;;;;;;;;;;;;;;;;;;6263137;22;19919;-87
2022/08/21 01:47:46;;;;;;;;;;;;;;;;;;6263153;22;19983;-88
2022/08/21 01:50:12;;;;;;;;;;;;;;;;;;6239681;22;19922;-88
2022/08/21 01:52:38;;;;;;;;;;;;;;;;;;6235601;22;20304;-88
2022/08/21 01:55:05;;;;;;;;;;;;;;;;;;6238243;22;19919;-89
2022/08/21 01:57:32;;;;;;;;;;;;;;;;;;6236292;22;20288;-88
2022/08/21 01:59:58;;;;;;;;;;;;;;;;;;6265194;22;19919;-88
2022/08/21 02:02:24;;;;;;;;;;;;;;;;;;6259027;22;20508;-88
2022/08/21 02:04:50;;;;;;;;;;;;;;;;;;6264793;22;19919;-88
2022/08/21 02:07:18;;;;;;;;;;;;;;;;;;6238820;22;19968;-88
2022/08/21 02:09:44;;;;;;;;;;;;;;;;;;6261661;22;20320;-88
2022/08/21 02:12:10;;;;;;;;;;;;;;;;;;6264556;22;19923;-88
2022/08/21 02:14:36;;;;;;;;;;;;;;;;;;6261097;22;19925;-88
2022/08/21 02:17:02;;;;;;;;;;;;;;;;;;6263686;22;20358;-88
2022/08/21 02:19:28;;;;;;;;;;;;;;;;;;6263370;22;20458;-88
2022/08/21 02:21:54;;;;;;;;;;;;;;;;;;6238900;22;19915;-88
2022/08/21 02:24:20;;;;;;;;;;;;;;;;;;6236737;22;19933;-88
2022/08/21 02:26:46;;;;;;;;;;;;;;;;;;6259961;22;19946;-88
2022/08/21 02:29:12;;;;;;;;;;;;;;;;;;6240041;22;19919;-87
2022/08/21 02:31:38;;;;;;;;;;;;;;;;;;6236801;22;19980;-88
2022/08/21 02:34:05;;;;;;;;;;;;;;;;;;6263058;22;19919;-88
2022/08/21 02:36:31;;;;;;;;;;;;;;;;;;6260398;22;19915;-88
2022/08/21 02:38:57;;;;;;;;;;;;;;;;;;6263161;22;20002;-88
2022/08/21 02:41:23;;;;;;;;;;;;;;;;;;6233551;22;19919;-88
2022/08/21 02:43:48;;;;;;;;;;;;;;;;;;6262928;22;20450;-88
2022/08/21 02:46:14;;;;;;;;;;;;;;;;;;6262470;22;20251;-88
2022/08/21 02:48:40;;;;;;;;;;;;;;;;;;6262863;22;19919;-88
2022/08/21 02:51:06;;;;;;;;;;;;;;;;;;6261807;22;19918;-87
2022/08/21 02:53:33;;;;;;;;;;;;;;;;;;6260014;22;19942;-88
2022/08/21 02:55:59;;;;;;;;;;;;;;;;;;6263662;22;19919;-88
2022/08/21 02:58:25;;;;;;;;;;;;;;;;;;6260542;22;19929;-88
2022/08/21 03:00:51;;;;;;;;;;;;;;;;;;6242438;22;19914;-87
2022/08/21 03:03:17;;;;;;;;;;;;;;;;;;6242769;22;20385;-88
2022/08/21 03:05:43;;;;;;;;;;;;;;;;;;6239816;22;20399;-88
2022/08/21 03:08:10;;;;;;;;;;;;;;;;;;6240750;22;20354;-88
2022/08/21 03:10:35;;;;;;;;;;;;;;;;;;6240564;22;19918;-88
2022/08/21 03:13:03;;;;;;;;;;;;;;;;;;6241029;22;19969;-88
2022/08/21 03:15:29;;;;;;;;;;;;;;;;;;6265897;22;20294;-88
2022/08/21 03:17:55;;;;;;;;;;;;;;;;;;6266232;22;19923;-88
2022/08/21 03:20:22;;;;;;;;;;;;;;;;;;6240592;22;19926;-88
2022/08/21 03:22:48;;;;;;;;;;;;;;;;;;6266333;22;19930;-88
2022/08/21 03:25:14;;;;;;;;;;;;;;;;;;6242215;22;19919;-88
2022/08/21 03:27:40;;;;;;;;;;;;;;;;;;6263592;22;19919;-88
2022/08/21 03:30:06;;;;;;;;;;;;;;;;;;6243953;22;19915;-88
2022/08/21 03:32:32;;;;;;;;;;;;;;;;;;6238744;22;20294;-88
2022/08/21 03:35:00;;;;;;;;;;;;;;;;;;6309100;22;20265;-88
2022/08/21 03:37:25;;;;;;;;;;;;;;;;;;6244770;22;19923;-88
2022/08/21 03:39:51;;;;;;;;;;;;;;;;;;6267871;22;19938;-88
2022/08/21 03:42:18;;;;;;;;;;;;;;;;;;6240841;22;19923;-88
2022/08/21 03:44:44;;;;;;;;;;;;;;;;;;6239550;22;19919;-87
2022/08/21 03:47:09;;;;;;;;;;;;;;;;;;6265976;22;19926;-88
2022/08/21 03:49:35;;;;;;;;;;;;;;;;;;6240010;22;19994;-88
2022/08/21 03:52:01;;;;;;;;;;;;;;;;;;6242078;22;19914;-88
2022/08/21 03:54:27;;;;;;;;;;;;;;;;;;6263295;22;19918;-88
2022/08/21 03:56:54;;;;;;;;;;;;;;;;;;6241968;22;19915;-88
2022/08/21 03:59:20;;;;;;;;;;;;;;;;;;6240624;22;19919;-88
2022/08/21 04:01:47;;;;;;;;;;;;;;;;;;6237538;22;19949;-87
2022/08/21 04:04:14;;;;;;;;;;;;;;;;;;6266696;22;19968;-88
2022/08/21 04:06:40;;;;;;;;;;;;;;;;;;6239649;22;19919;-87
2022/08/21 04:09:06;;;;;;;;;;;;;;;;;;6240346;22;20343;-88
2022/08/21 04:11:33;;;;;;;;;;;;;;;;;;6264442;22;20276;-88
2022/08/21 04:14:01;;;;;;;;;;;;;;;;;;6266161;22;20381;-88
2022/08/21 04:16:27;;;;;;;;;;;;;;;;;;6263831;22;19929;-88
2022/08/21 04:18:53;;;;;;;;;;;;;;;;;;6268146;22;19994;-88
2022/08/21 04:21:19;;;;;;;;;;;;;;;;;;6241962;22;19919;-88
2022/08/21 04:23:45;;;;;;;;;;;;;;;;;;6264497;22;20366;-88
2022/08/21 04:26:10;;;;;;;;;;;;;;;;;;6241627;22;20240;-88
2022/08/21 04:28:36;;;;;;;;;;;;;;;;;;6262967;22;20254;-88
2022/08/21 04:31:02;;;;;;;;;;;;;;;;;;6267771;22;20375;-88
2022/08/21 04:33:29;;;;;;;;;;;;;;;;;;6263695;22;20354;-88
2022/08/21 04:35:54;;;;;;;;;;;;;;;;;;6267977;22;19950;-88
2022/08/21 04:38:23;;;;;;;;;;;;;;;;;;6265685;22;20089;-88
2022/08/21 04:40:49;;;;;;;;;;;;;;;;;;6265454;22;19915;-87
2022/08/21 04:43:15;;;;;;;;;;;;;;;;;;6267704;22;20249;-88
2022/08/21 04:45:41;;;;;;;;;;;;;;;;;;6263307;22;20510;-87
2022/08/21 04:48:07;;;;;;;;;;;;;;;;;;6263822;22;19919;-87
2022/08/21 04:50:33;;;;;;;;;;;;;;;;;;6263376;22;19926;-88
2022/08/21 04:52:59;;;;;;;;;;;;;;;;;;6241558;22;19942;-88
2022/08/21 04:55:27;;;;;;;;;;;;;;;;;;6261367;22;19923;-88
2022/08/21 04:57:53;;;;;;;;;;;;;;;;;;6239627;22;19919;-88
2022/08/21 05:00:19;;;;;;;;;;;;;;;;;;6237918;22;19968;-88
2022/08/21 05:02:47;;;;;;;;;;;;;;;;;;6238605;22;20017;-88
2022/08/21 05:05:14;;;;;;;;;;;;;;;;;;6264569;22;19960;-88
2022/08/21 05:07:41;;;;;;;;;;;;;;;;;;6236126;22;19919;-88
2022/08/21 05:10:08;;;;;;;;;;;;;;;;;;6290584;22;19919;-88
2022/08/21 05:12:34;;;;;;;;;;;;;;;;;;6258147;22;19930;-88
2022/08/21 05:15:00;;;;;;;;;;;;;;;;;;6264112;22;19938;-88
2022/08/21 05:17:26;;;;;;;;;;;;;;;;;;6262054;22;20021;-89
2022/08/21 05:19:52;;;;;;;;;;;;;;;;;;6240851;22;20250;-88
2022/08/21 05:22:18;;;;;;;;;;;;;;;;;;6267435;22;20304;-88
2022/08/21 05:24:43;;;;;;;;;;;;;;;;;;6239208;22;19944;-88
2022/08/21 05:27:09;;;;;;;;;;;;;;;;;;6266044;22;19919;-88
2022/08/21 05:29:35;;;;;;;;;;;;;;;;;;6239032;22;19923;-87
2022/08/21 05:32:01;;;;;;;;;;;;;;;;;;6241835;22;19942;-87
2022/08/21 05:34:27;;;;;;;;;;;;;;;;;;6237743;22;19926;-88
2022/08/21 05:36:53;;;;;;;;;;;;;;;;;;6264399;22;19968;-88
2022/08/21 05:39:19;;;;;;;;;;;;;;;;;;6239992;22;20332;-88
2022/08/21 05:41:45;;;;;;;;;;;;;;;;;;6237484;22;19923;-88
2022/08/21 05:44:11;;;;;;;;;;;;;;;;;;6267134;22;19923;-88
2022/08/21 05:46:37;;;;;;;;;;;;;;;;;;6263574;22;20339;-88
2022/08/21 05:49:03;;;;;;;;;;;;;;;;;;6264997;22;20009;-88
2022/08/21 05:51:29;;;;;;;;;;;;;;;;;;6237462;22;20661;-88
2022/08/21 05:53:55;;;;;;;;;;;;;;;;;;6267593;22;19923;-88
2022/08/21 05:56:21;;;;;;;;;;;;;;;;;;6266045;22;19918;-89
2022/08/21 05:58:47;;;;;;;;;;;;;;;;;;6238281;22;19926;-89
2022/08/21 06:01:14;;;;;;;;;;;;;;;;;;6239729;22;20001;-90
2022/08/21 06:03:40;;;;;;;;;;;;;;;;;;6264128;22;19919;-89
2022/08/21 06:06:06;;;;;;;;;;;;;;;;;;6239916;22;20236;-90
2022/08/21 06:08:32;;;;;;;;;;;;;;;;;;6262544;22;19928;-89
2022/08/21 06:10:58;;;;;;;;;;;;;;;;;;6264509;22;19934;-88
2022/08/21 06:13:24;;;;;;;;;;;;;;;;;;6263782;22;19993;-90
2022/08/21 06:15:50;;;;;;;;;;;;;;;;;;6238854;22;19985;-89
2022/08/21 06:18:17;;;;;;;;;;;;;;;;;;6263310;22;19915;-89
2022/08/21 06:20:43;;;;;;;;;;;;;;;;;;6263525;22;20354;-88
2022/08/21 06:23:09;;;;;;;;;;;;;;;;;;6240290;22;19989;-88
2022/08/21 06:25:35;;;;;;;;;;;;;;;;;;6237320;22;19923;-90
2022/08/21 06:28:01;;;;;;;;;;;;;;;;;;6262231;22;20338;-88
2022/08/21 06:30:27;;;;;;;;;;;;;;;;;;6241026;22;19915;-88
2022/08/21 06:32:53;;;;;;;;;;;;;;;;;;6264456;22;19918;-90
2022/08/21 06:35:19;;;;;;;;;;;;;;;;;;6237783;22;19915;-89
2022/08/21 06:37:45;;;;;;;;;;;;;;;;;;6264410;22;19923;-90
2022/08/21 06:40:11;;;;;;;;;;;;;;;;;;6269113;22;19915;-90
2022/08/21 06:42:37;;;;;;;;;;;;;;;;;;6263705;22;19923;-90
2022/08/21 06:45:03;;;;;;;;;;;;;;;;;;6241698;22;19919;-90
2022/08/21 06:47:31;;;;;;;;;;;;;;;;;;6264545;22;20287;-90
2022/08/21 06:49:56;;;;;;;;;;;;;;;;;;6267644;22;20808;-89
2022/08/21 06:52:22;;;;;;;;;;;;;;;;;;6266038;22;19957;-89
2022/08/21 06:54:49;;;;;;;;;;;;;;;;;;6294260;22;19915;-90
2022/08/21 06:57:15;;;;;;;;;;;;;;;;;;6240276;22;19976;-89
2022/08/21 06:59:41;;;;;;;;;;;;;;;;;;6238131;22;20816;-89
2022/08/21 07:02:07;;;;;;;;;;;;;;;;;;6265998;22;20026;-90
2022/08/21 07:04:33;;;;;;;;;;;;;;;;;;6237176;22;19930;-90
2022/08/21 07:06:59;;;;;;;;;;;;;;;;;;6240932;22;20032;-89
2022/08/21 07:09:25;;;;;;;;;;;;;;;;;;6236205;22;19927;-89
2022/08/21 07:11:51;;;;;;;;;;;;;;;;;;6239943;22;19922;-89
2022/08/21 07:14:17;;;;;;;;;;;;;;;;;;6238954;22;19919;-89
2022/08/21 07:16:43;;;;;;;;;;;;;;;;;;6260616;22;19918;-89
2022/08/21 07:19:09;;;;;;;;;;;;;;;;;;6266062;22;20510;-88
2022/08/21 07:21:35;;;;;;;;;;;;;;;;;;6236487;22;19958;-89
2022/08/21 07:24:00;;;;;;;;;;;;;;;;;;6241532;22;19922;-89
2022/08/21 07:26:26;;;;;;;;;;;;;;;;;;6263886;22;19950;-88
2022/08/21 07:28:52;;;;;;;;;;;;;;;;;;6241132;22;19919;-89
2022/08/21 07:31:18;;;;;;;;;;;;;;;;;;6264012;22;19919;-89
2022/08/21 07:33:44;;;;;;;;;;;;;;;;;;6237215;22;19915;-89
2022/08/21 07:36:10;;;;;;;;;;;;;;;;;;6266248;22;19914;-89
2022/08/21 07:38:36;;;;;;;;;;;;;;;;;;6238884;22;20000;-90
2022/08/21 07:41:02;;;;;;;;;;;;;;;;;;6238100;22;20354;-88
2022/08/21 07:43:28;;;;;;;;;;;;;;;;;;6260424;22;20450;-88
2022/08/21 07:45:54;;;;;;;;;;;;;;;;;;6239446;22;19919;-89
2022/08/21 07:48:23;;;;;;;;;;;;;;;;;;6265869;22;20514;-89
2022/08/21 07:50:49;;;;;;;;;;;;;;;;;;6265721;22;19919;-88
2022/08/21 07:53:15;;;;;;;;;;;;;;;;;;6240788;22;19919;-88
2022/08/21 07:55:41;;;;;;;;;;;;;;;;;;6236748;22;19919;-89
2022/08/21 07:58:07;;;;;;;;;;;;;;;;;;6239678;22;20616;-90
2022/08/21 08:00:33;;;;;;;;;;;;;;;;;;6259104;22;19993;-88
2022/08/21 08:02:59;;;;;;;;;;;;;;;;;;6240572;22;19961;-88
2022/08/21 08:05:25;;;;;;;;;;;;;;;;;;6263197;22;19924;-89
2022/08/21 08:07:51;;;;;;;;;;;;;;;;;;6265364;22;19922;-89
2022/08/21 08:10:17;;;;;;;;;;;;;;;;;;6238168;22;20442;-89
2022/08/21 08:12:43;;;;;;;;;;;;;;;;;;6235381;22;19927;-88
2022/08/21 08:15:09;;;;;;;;;;;;;;;;;;6262517;22;19919;-89
2022/08/21 08:17:35;;;;;;;;;;;;;;;;;;6233240;22;19923;-88
2022/08/21 08:20:02;;;;;;;;;;;;;;;;;;6264965;22;20327;-89
2022/08/21 08:22:28;;;;;;;;;;;;;;;;;;6263155;22;19961;-89
2022/08/21 08:24:54;;;;;;;;;;;;;;;;;;6239315;22;19942;-89
2022/08/21 08:27:20;;;;;;;;;;;;;;;;;;6240816;22;19922;-88
2022/08/21 08:29:46;;;;;;;;;;;;;;;;;;6261068;22;19925;-88
2022/08/21 08:32:13;;;;;;;;;;;;;;;;;;6262404;22;20200;-89
2022/08/21 08:34:39;;;;;;;;;;;;;;;;;;6236128;22;19918;-89
2022/08/21 08:37:05;;;;;;;;;;;;;;;;;;6240447;22;19923;-89
2022/08/21 08:39:32;;;;;;;;;;;;;;;;;;6262458;22;21534;-88
2022/08/21 08:41:59;;;;;;;;;;;;;;;;;;6237657;22;19922;-89
2022/08/21 08:44:25;;;;;;;;;;;;;;;;;;6237891;22;19923;-87
2022/08/21 08:46:51;;;;;;;;;;;;;;;;;;6239726;22;19926;-88
2022/08/21 08:49:17;;;;;;;;;;;;;;;;;;6264927;22;19919;-88
2022/08/21 08:51:43;;;;;;;;;;;;;;;;;;6264855;22;19926;-88
2022/08/21 08:54:09;;;;;;;;;;;;;;;;;;6236616;22;19919;-88
2022/08/21 08:56:35;;;;;;;;;;;;;;;;;;6260404;22;19923;-91
2022/08/21 08:59:01;;;;;;;;;;;;;;;;;;6264468;22;19926;-88
2022/08/21 09:01:27;;;;;;;;;;;;;;;;;;6238085;22;20602;-88
2022/08/21 09:03:53;;;;;;;;;;;;;;;;;;6241715;22;19946;-89
2022/08/21 09:06:19;;;;;;;;;;;;;;;;;;6232820;22;19926;-89
2022/08/21 09:08:48;;;;;;;;;;;;;;;;;;6234617;22;19922;-88
2022/08/21 09:11:14;;;;;;;;;;;;;;;;;;6238493;22;19925;-88
2022/08/21 09:13:41;;;;;;;;;;;;;;;;;;6261842;22;20214;-90
2022/08/21 09:16:06;;;;;;;;;;;;;;;;;;6241038;22;20324;-90
2022/08/21 09:18:34;;;;;;;;;;;;;;;;;;6236847;22;19915;-90
2022/08/21 09:21:00;;;;;;;;;;;;;;;;;;6239360;22;20246;-88
2022/08/21 09:23:28;;;;;;;;;;;;;;;;;;6261297;22;20464;-89
2022/08/21 09:25:54;;;;;;;;;;;;;;;;;;6237445;22;19919;-88
2022/08/21 09:28:19;;;;;;;;;;;;;;;;;;6237667;22;19971;-90
2022/08/21 09:30:45;;;;;;;;;;;;;;;;;;6232520;22;19954;-90
2022/08/21 09:33:11;;;;;;;;;;;;;;;;;;6239828;22;19922;-90
2022/08/21 09:35:37;;;;;;;;;;;;;;;;;;6237092;22;19923;-89
2022/08/21 09:38:05;;;;;;;;;;;;;;;;;;6262452;22;19919;-91
2022/08/21 09:40:34;;;;;;;;;;;;;;;;;;6235200;22;20019;-89
2022/08/21 09:43:00;;;;;;;;;;;;;;;;;;6261642;22;20332;-88
2022/08/21 09:45:26;;;;;;;;;;;;;;;;;;6259556;22;19923;-88
2022/08/21 09:47:52;;;;;;;;;;;;;;;;;;6237649;22;20239;-87
2022/08/21 09:50:18;;;;;;;;;;;;;;;;;;6264288;22;19973;-90
2022/08/21 09:52:44;;;;;;;;;;;;;;;;;;6262957;22;19919;-88
2022/08/21 09:57:37;;;;;;;;;;;;;;;;;;6236606;22;19981;-90
2022/08/21 09:57:56;;;;;;;;;;;;;;;;;;6265141;22;20018;-89
2022/08/21 10:00:22;;;;;;;;;;;;;;;;;;6262192;22;20003;-89
2022/08/21 10:02:48;;;;;;;;;;;;;;;;;;6238965;22;19989;-89
2022/08/21 10:05:14;;;;;;;;;;;;;;;;;;6238752;22;19915;-87
2022/08/21 10:07:39;;;;;;;;;;;;;;;;;;6260790;22;19919;-90
2022/08/21 10:10:07;;;;;;;;;;;;;;;;;;6240608;22;19949;-89
2022/08/21 10:12:33;;;;;;;;;;;;;;;;;;6231813;22;19920;-91
2022/08/21 10:14:59;;;;;;;;;;;;;;;;;;6211898;22;19942;-87
2022/08/21 10:17:25;;;;;;;;;;;;;;;;;;6231873;22;20348;-90
2022/08/21 10:19:51;;;;;;;;;;;;;;;;;;6211427;22;20362;-85
2022/08/21 10:22:17;;;;;;;;;;;;;;;;;;6212372;22;19926;-87
2022/08/21 10:24:43;;;;;;;;;;;;;;;;;;6235559;22;20126;-87
2022/08/21 10:27:09;;;;;;;;;;;;;;;;;;6213571;22;19969;-90
2022/08/21 10:29:38;;;;;;;;;;;;;;;;;;6212619;22;19961;-91
2022/08/21 10:32:03;;;;;;;;;;;;;;;;;;6216075;22;20622;-91
2022/08/21 10:34:29;;;;;;;;;;;;;;;;;;6207136;22;20315;-88
2022/08/21 10:36:55;;;;;;;;;;;;;;;;;;6237661;22;20683;-91
2022/08/21 10:39:21;;;;;;;;;;;;;;;;;;6210992;22;20363;-90
2022/08/21 10:41:47;;;;;;;;;;;;;;;;;;6203209;22;19984;-88
2022/08/21 10:59:35;;;;;;;;;;;;;;;;;;6146043;22;19918;-83
2022/08/21 11:02:09;;;;;;;;;;;;;;;;;;6268289;22;20038;-82
2022/08/21 11:04:47;;;;;;;;;;;;;;;;;;6319424;22;20338;-81
2022/08/21 11:10:14;;;;;;;;;;;;;;;;;;6280782;22;19925;-82
2022/08/21 11:18:45;;;;;;;;;;;;;;;;;;6278185;22;19918;-82
2022/08/21 11:21:44;;;;;;;;;;;;;;;;;;6172247;23;19934;-83
2022/08/21 11:24:39;;;;;;;;;;;;;;;;;;6110232;23;20306;-82
2022/08/21 11:30:34;;;;;;;;;;;;;;;;;;6078132;23;19992;-82
2022/08/21 11:33:18;;;;;;;;;;;;;;;;;;6027977;23;19953;-84
2022/08/21 11:35:59;;;;;;;;;;;;;;;;;;;;;
2022/08/21 11:38:42;;;;;;;;;;;;;;;;;;6161847;23;19942;-82
2022/08/21 11:41:11;;;;;;;;;;;;;;;;;;6143035;23;19923;-83
2022/08/21 11:47:02;;;;;;;;;;;;;;;;;;6085624;23;19935;-83
2022/08/21 11:49:55;;;;;;;;;;;;;;;;;;6052914;23;19932;-82
2022/08/21 11:52:45;;;;;;;;;;;;;;;;;;6009404;23;19973;-83
2022/08/21 11:55:31;;;;;;;;;;;;;;;;;;6132138;22;20354;-83
2022/08/21 11:58:08;;;;;;;;;;;;;;;;;;6204799;22;19937;-81
2022/08/21 12:00:47;;;;;;;;;;;;;;;;;;6211038;23;19981;-82
2022/08/21 12:03:25;;;;;;;;;;;;;;;;;;6175205;23;19958;-81
2022/08/21 12:05:53;;;;;;;;;;;;;;;;;;6177159;23;20305;-81
2022/08/21 12:08:19;;;;;;;;;;;;;;;;;;6160454;23;19967;-81
2022/08/21 12:13:53;;;;;;;;;;;;;;;;;;;;;
2022/08/21 12:19:11;;;;;;;;;;;;;;;;;;6127349;23;20243;-84
2022/08/21 12:25:07;;;;;;;;;;;;;;;;;;6056063;23;19950;-83
2022/08/21 12:36:42;;;;;;;;;;;;;;;;;;5990461;23;19997;-82
2022/08/21 12:39:32;;;;;;;;;;;;;;;;;;6009216;23;20009;-83
2022/08/21 12:58:12;;;;;;;;;;;;;;;;;;;;;
2022/08/21 13:08:40;;;;;;;;;;;;;;;;;;6273805;22;19943;-86
2022/08/21 13:20:24;;;;;;;;;;;;;;;;;;6199291;23;20222;-84
2022/08/21 13:54:09;;;;;;;;;;;;;;;;;;;;;
2022/08/21 14:12:58;;;;;;;;;;;;;;;;;;6087065;23;20322;-86
2022/08/21 14:16:09;;;;;;;;;;;;;;;;;;;;;
2022/08/21 14:59:02;;;;;;;;;;;;;;;;;;6197831;23;20389;-86
2022/08/21 15:01:59;;;;;;;;;;;;;;;;;;;;;
2022/08/21 15:13:52;;;;;;;;;;;;;;;;;;6083868;23;20437;-84
2022/08/21 15:19:17;;;;;;;;;;;;;;;;;;6083476;23;19949;-85
2022/08/21 15:21:49;;;;;;;;;;;;;;;;;;6048598;23;20293;-83
2022/08/21 15:24:33;;;;;;;;;;;;;;;;;;6138118;23;19935;-85
2022/08/21 15:27:38;;;;;;;;;;;;;;;;;;6147084;23;20257;-85
2022/08/21 15:30:10;;;;;;;;;;;;;;;;;;6165444;23;20003;-84
2022/08/21 15:32:42;;;;;;;;;;;;;;;;;;6140737;23;19920;-84
2022/08/21 15:35:11;;;;;;;;;;;;;;;;;;6166484;23;19987;-84
2022/08/21 15:37:39;;;;;;;;;;;;;;;;;;6141397;23;19936;-85
2022/08/21 15:40:13;;;;;;;;;;;;;;;;;;6144492;23;20371;-85
2022/08/21 15:42:48;;;;;;;;;;;;;;;;;;6142103;23;20075;-84
2022/08/21 15:45:27;;;;;;;;;;;;;;;;;;6166128;23;19935;-85
2022/08/21 15:48:03;;;;;;;;;;;;;;;;;;;;;
2022/08/21 15:50:32;;;;;;;;;;;;;;;;;;6254860;22;20666;-85
2022/08/21 15:56:19;;;;;;;;;;;;;;;;;;6237957;22;20097;-80
2022/08/21 15:58:48;;;;;;;;;;;;;;;;;;6171493;23;20370;-79
2022/08/21 16:01:19;;;;;;;;;;;;;;;;;;6166350;23;20634;-80
2022/08/21 16:03:55;;;;;;;;;;;;;;;;;;6200351;23;20387;-80
2022/08/21 16:06:24;;;;;;;;;;;;;;;;;;6170862;23;19997;-81
2022/08/21 16:09:02;;;;;;;;;;;;;;;;;;6173873;23;19922;-82
2022/08/21 16:11:53;;;;;;;;;;;;;;;;;;;;;
2022/08/21 16:23:53;;;;;;;;;;;;;;;;;;6141861;23;20008;-84
2022/08/21 16:26:38;;;;;;;;;;;;;;;;;;6117260;23;19966;-83
2022/08/21 16:29:07;;;;;;;;;;;;;;;;;;6113984;23;20372;-84
2022/08/21 16:31:36;;;;;;;;;;;;;;;;;;6180799;22;20016;-84
2022/08/21 16:34:05;;;;;;;;;;;;;;;;;;6229764;22;19920;-84
2022/08/21 16:36:34;;;;;;;;;;;;;;;;;;6231064;22;20205;-85
2022/08/21 16:39:21;;;;;;;;;;;;;;;;;;;;;
2022/08/21 16:42:27;;;;;;;;;;;;;;;;;;;;;
2022/08/21 17:12:41;;;;;;;;;;;;;;;;;;6294075;22;20281;-82
2022/08/21 17:15:10;;;;;;;;;;;;;;;;;;6264852;22;19968;-82
2022/08/21 17:17:41;;;;;;;;;;;;;;;;;;6289169;22;19918;-82
2022/08/21 17:20:53;;;;;;;;;;;;;;;;;;6244480;22;19933;-83
2022/08/21 17:23:40;;;;;;;;;;;;;;;;;;6253817;22;19919;-83
2022/08/21 17:31:39;;;;;;;;;;;;;;;;;;6304203;22;19960;-81
2022/08/21 17:34:10;;;;;;;;;;;;;;;;;;6292833;22;20330;-82
2022/08/21 17:36:39;;;;;;;;;;;;;;;;;;6262031;22;19922;-81
2022/08/21 17:39:18;;;;;;;;;;;;;;;;;;;;;
2022/08/21 17:41:52;;;;;;;;;;;;;;;;;;6290893;22;20370;-81
2022/08/21 17:44:18;;;;;;;;;;;;;;;;;;6265373;22;19922;-80
2022/08/21 17:46:46;;;;;;;;;;;;;;;;;;6260227;22;20339;-80
2022/08/21 17:49:15;;;;;;;;;;;;;;;;;;6249855;22;20375;-79
2022/08/21 17:51:41;;;;;;;;;;;;;;;;;;6234040;22;19919;-81
2022/08/21 17:54:59;;;;;;;;;;;;;;;;;;;;;
2022/08/21 17:56:59;;;;;;;;;;;;;;;;;;6248044;22;20014;-86
2022/08/21 18:08:21;;;;;;;;;;;;;;;;;;6282598;22;19927;-83
2022/08/21 18:18:51;;;;;;;;;;;;;;;;;;6235964;22;20318;-81
2022/08/21 18:21:29;;;;;;;;;;;;;;;;;;6235746;22;19930;-82
2022/08/21 18:23:55;;;;;;;;;;;;;;;;;;6236551;22;19967;-80
2022/08/21 18:26:25;;;;;;;;;;;;;;;;;;6239393;22;20312;-81
2022/08/21 18:28:51;;;;;;;;;;;;;;;;;;6264947;22;20339;-86
2022/08/21 18:31:19;;;;;;;;;;;;;;;;;;6236987;22;19919;-86
2022/08/21 18:33:49;;;;;;;;;;;;;;;;;;6256543;22;19918;-86
2022/08/21 18:36:20;;;;;;;;;;;;;;;;;;6235790;22;20043;-85
2022/08/21 18:38:55;;;;;;;;;;;;;;;;;;6232914;22;19926;-86
2022/08/21 18:47:42;;;;;;;;;;;;;;;;;;6156732;22;19919;-86
2022/08/21 18:56:32;;;;;;;;;;;;;;;;;;6135609;23;19930;-86
2022/08/21 19:02:36;;;;;;;;;;;;;;;;;;6171928;23;19950;-84
2022/08/21 19:10:48;;;;;;;;;;;;;;;;;;6195155;22;20415;-84
2022/08/21 19:13:16;;;;;;;;;;;;;;;;;;6286640;22;19919;-83
2022/08/21 19:15:48;;;;;;;;;;;;;;;;;;6266030;22;19918;-83
2022/08/21 19:18:23;;;;;;;;;;;;;;;;;;6284304;22;19918;-84
2022/08/21 19:28:42;;;;;;;;;;;;;;;;;;6245971;22;20283;-86
2022/08/21 19:31:32;;;;;;;;;;;;;;;;;;6296499;22;19925;-86
2022/08/21 19:34:14;;;;;;;;;;;;;;;;;;6268752;22;19930;-85
2022/08/21 20:06:51;;;;;;;;;;;;;;;;;;6141980;23;19985;-83
2022/08/21 20:09:36;;;;;;;;;;;;;;;;;;;;;
2022/08/21 20:19:22;;;;;;;;;;;;;;;;;;;;;
2022/08/21 20:22:28;;;;;;;;;;;;;;;;;;;;;
2022/08/21 21:07:50;;;;;;;;;;;;;;;;;;;;;
2022/08/21 21:51:23;;;;;;;;;;;;;;;;;;6184891;22;20001;31
2022/08/21 21:56:57;;;;;;;;;;;;;;;;;;6167165;23;20000;-86
2022/08/21 21:59:26;;;;;;;;;;;;;;;;;;6077783;23;19925;-87
2022/08/21 22:02:08;;;;;;;;;;;;;;;;;;6052687;23;19924;-87
2022/08/21 22:09:52;;;;;;;;;;;;;;;;;;6220702;22;19974;-86
2022/08/21 22:15:15;;;;;;;;;;;;;;;;;;6206761;23;19920;-87
2022/08/21 22:20:45;;;;;;;;;;;;;;;;;;6206570;23;19934;-86
2022/08/21 23:15:06;;;;;;;;;;;;;;;;;;6331805;22;19955;-87
2022/08/21 23:17:47;;;;;;;;;;;;;;;;;;6268813;22;19919;-88
2022/08/21 23:23:22;;;;;;;;;;;;;;;;;;6303474;22;19922;-87
2022/08/21 23:29:03;;;;;;;;;;;;;;;;;;6299938;22;20013;-88
2022/08/21 23:38:27;;;;;;;;;;;;;;;;;;;;;
2022/08/21 23:40:54;;;;;;;;;;;;;;;;;;6293250;22;20048;-88
2022/08/21 23:43:27;;;;;;;;;;;;;;;;;;6272166;22;19989;-88
2022/08/21 23:46:18;;;;;;;;;;;;;;;;;;6297755;22;19981;-88
2022/08/21 23:52:03;;;;;;;;;;;;;;;;;;6263362;22;19940;-88
2022/08/21 23:54:49;;;;;;;;;;;;;;;;;;6236401;22;20235;-88
